sensor_id;sensor_type;location;lat;lon;timestamp;temperature;humidity
30678;DHT22;17437;47.188;8.896;2023-08-31T00:01:04;13.80;99.90
30678;DHT22;17437;47.188;8.896;2023-08-31T00:03:36;13.80;99.90
30678;DHT22;17437;47.188;8.896;2023-08-31T00:06:08;13.80;99.90
30678;DHT22;17437;47.188;8.896;2023-08-31T00:08:40;13.90;99.90
30678;DHT22;17437;47.188;8.896;2023-08-31T00:11:11;13.90;99.90
30678;DHT22;17437;47.188;8.896;2023-08-31T00:13:43;13.90;99.90
30678;DHT22;17437;47.188;8.896;2023-08-31T00:16:14;13.90;99.90
30678;DHT22;17437;47.188;8.896;2023-08-31T00:18:46;13.90;99.90
30678;DHT22;17437;47.188;8.896;2023-08-31T00:21:17;13.90;99.90
30678;DHT22;17437;47.188;8.896;2023-08-31T00:23:49;14.00;99.90
30678;DHT22;17437;47.188;8.896;2023-08-31T00:26:20;14.00;99.90
30678;DHT22;17437;47.188;8.896;2023-08-31T00:28:53;14.00;99.90
30678;DHT22;17437;47.188;8.896;2023-08-31T00:31:24;14.00;99.90
30678;DHT22;17437;47.188;8.896;2023-08-31T00:33:58;14.00;99.90
30678;DHT22;17437;47.188;8.896;2023-08-31T00:36:31;14.10;99.90
30678;DHT22;17437;47.188;8.896;2023-08-31T00:39:04;14.10;99.90
30678;DHT22;17437;47.188;8.896;2023-08-31T00:41:37;14.10;99.90
30678;DHT22;17437;47.188;8.896;2023-08-31T00:44:09;14.10;99.90
30678;DHT22;17437;47.188;8.896;2023-08-31T00:46:41;14.20;99.90
30678;DHT22;17437;47.188;8.896;2023-08-31T00:49:13;14.20;99.90
30678;DHT22;17437;47.188;8.896;2023-08-31T00:51:46;14.20;99.90
30678;DHT22;17437;47.188;8.896;2023-08-31T00:54:20;14.20;99.90
30678;DHT22;17437;47.188;8.896;2023-08-31T00:56:53;14.20;99.90
30678;DHT22;17437;47.188;8.896;2023-08-31T00:59:26;14.20;99.90
30678;DHT22;17437;47.188;8.896;2023-08-31T01:02:01;14.20;99.90
30678;DHT22;17437;47.188;8.896;2023-08-31T01:04:41;14.20;99.90
30678;DHT22;17437;47.188;8.896;2023-08-31T01:07:16;14.10;99.90
30678;DHT22;17437;47.188;8.896;2023-08-31T01:09:50;14.10;99.90
30678;DHT22;17437;47.188;8.896;2023-08-31T01:12:25;14.10;99.90
30678;DHT22;17437;47.188;8.896;2023-08-31T01:15:00;14.20;99.90
30678;DHT22;17437;47.188;8.896;2023-08-31T01:17:33;14.20;99.90
30678;DHT22;17437;47.188;8.896;2023-08-31T01:20:09;14.20;99.90
30678;DHT22;17437;47.188;8.896;2023-08-31T01:22:47;14.10;99.90
30678;DHT22;17437;47.188;8.896;2023-08-31T01:25:18;14.10;99.90
30678;DHT22;17437;47.188;8.896;2023-08-31T01:27:50;14.00;99.90
30678;DHT22;17437;47.188;8.896;2023-08-31T01:30:22;14.00;99.90
30678;DHT22;17437;47.188;8.896;2023-08-31T01:32:54;13.90;99.90
30678;DHT22;17437;47.188;8.896;2023-08-31T01:35:26;13.90;99.90
30678;DHT22;17437;47.188;8.896;2023-08-31T01:38:00;13.80;99.90
30678;DHT22;17437;47.188;8.896;2023-08-31T01:40:35;13.70;99.90
30678;DHT22;17437;47.188;8.896;2023-08-31T01:43:09;13.70;99.90
30678;DHT22;17437;47.188;8.896;2023-08-31T01:45:43;13.60;99.90
30678;DHT22;17437;47.188;8.896;2023-08-31T01:48:16;13.60;99.90
30678;DHT22;17437;47.188;8.896;2023-08-31T01:50:48;13.60;99.90
30678;DHT22;17437;47.188;8.896;2023-08-31T01:53:19;13.60;99.90
30678;DHT22;17437;47.188;8.896;2023-08-31T01:55:51;13.60;99.90
30678;DHT22;17437;47.188;8.896;2023-08-31T01:58:22;13.60;99.90
30678;DHT22;17437;47.188;8.896;2023-08-31T02:00:54;13.60;99.90
30678;DHT22;17437;47.188;8.896;2023-08-31T02:03:25;13.60;99.90
30678;DHT22;17437;47.188;8.896;2023-08-31T02:05:56;13.60;99.90
30678;DHT22;17437;47.188;8.896;2023-08-31T02:08:29;13.60;99.90
30678;DHT22;17437;47.188;8.896;2023-08-31T02:11:00;13.60;99.90
30678;DHT22;17437;47.188;8.896;2023-08-31T02:13:32;13.60;99.90
30678;DHT22;17437;47.188;8.896;2023-08-31T02:16:04;13.60;99.90
30678;DHT22;17437;47.188;8.896;2023-08-31T02:18:36;13.50;99.90
30678;DHT22;17437;47.188;8.896;2023-08-31T02:21:07;13.50;99.90
30678;DHT22;17437;47.188;8.896;2023-08-31T02:23:38;13.50;99.90
30678;DHT22;17437;47.188;8.896;2023-08-31T02:26:11;13.60;99.90
30678;DHT22;17437;47.188;8.896;2023-08-31T02:28:42;13.60;99.90
30678;DHT22;17437;47.188;8.896;2023-08-31T02:31:16;13.60;99.90
30678;DHT22;17437;47.188;8.896;2023-08-31T02:33:49;13.60;99.90
30678;DHT22;17437;47.188;8.896;2023-08-31T02:36:21;13.70;99.90
30678;DHT22;17437;47.188;8.896;2023-08-31T02:38:52;13.70;99.90
30678;DHT22;17437;47.188;8.896;2023-08-31T02:41:24;13.70;99.90
30678;DHT22;17437;47.188;8.896;2023-08-31T02:43:56;13.70;99.90
30678;DHT22;17437;47.188;8.896;2023-08-31T02:46:27;13.70;99.90
30678;DHT22;17437;47.188;8.896;2023-08-31T02:48:59;13.70;99.90
30678;DHT22;17437;47.188;8.896;2023-08-31T02:51:30;13.70;99.90
30678;DHT22;17437;47.188;8.896;2023-08-31T02:54:02;13.80;99.90
30678;DHT22;17437;47.188;8.896;2023-08-31T02:56:33;13.80;99.90
30678;DHT22;17437;47.188;8.896;2023-08-31T02:59:05;13.80;99.90
30678;DHT22;17437;47.188;8.896;2023-08-31T03:01:36;13.80;99.90
30678;DHT22;17437;47.188;8.896;2023-08-31T03:04:09;13.80;99.90
30678;DHT22;17437;47.188;8.896;2023-08-31T03:06:41;13.90;99.90
30678;DHT22;17437;47.188;8.896;2023-08-31T03:09:12;13.90;99.90
30678;DHT22;17437;47.188;8.896;2023-08-31T03:11:44;13.90;99.90
30678;DHT22;17437;47.188;8.896;2023-08-31T03:14:15;13.80;99.90
30678;DHT22;17437;47.188;8.896;2023-08-31T03:16:47;13.80;99.90
30678;DHT22;17437;47.188;8.896;2023-08-31T03:19:19;13.90;99.90
30678;DHT22;17437;47.188;8.896;2023-08-31T03:21:51;13.90;99.90
30678;DHT22;17437;47.188;8.896;2023-08-31T03:24:22;13.90;99.90
30678;DHT22;17437;47.188;8.896;2023-08-31T03:26:54;13.90;99.90
30678;DHT22;17437;47.188;8.896;2023-08-31T03:29:25;13.90;99.90
30678;DHT22;17437;47.188;8.896;2023-08-31T03:31:59;13.90;99.90
30678;DHT22;17437;47.188;8.896;2023-08-31T03:34:31;13.90;99.90
30678;DHT22;17437;47.188;8.896;2023-08-31T03:37:03;13.80;99.90
30678;DHT22;17437;47.188;8.896;2023-08-31T03:39:34;13.90;99.90
30678;DHT22;17437;47.188;8.896;2023-08-31T03:42:07;13.90;99.90
30678;DHT22;17437;47.188;8.896;2023-08-31T03:44:38;13.80;99.90
30678;DHT22;17437;47.188;8.896;2023-08-31T03:47:10;13.80;99.90
30678;DHT22;17437;47.188;8.896;2023-08-31T03:49:41;13.70;99.90
30678;DHT22;17437;47.188;8.896;2023-08-31T03:52:13;13.60;99.90
30678;DHT22;17437;47.188;8.896;2023-08-31T03:54:44;13.60;99.90
30678;DHT22;17437;47.188;8.896;2023-08-31T03:57:16;13.50;99.90
30678;DHT22;17437;47.188;8.896;2023-08-31T03:59:48;13.40;99.90
30678;DHT22;17437;47.188;8.896;2023-08-31T04:02:19;13.30;99.90
30678;DHT22;17437;47.188;8.896;2023-08-31T04:04:51;13.20;99.90
30678;DHT22;17437;47.188;8.896;2023-08-31T04:07:22;13.10;99.90
30678;DHT22;17437;47.188;8.896;2023-08-31T04:09:54;13.10;99.90
30678;DHT22;17437;47.188;8.896;2023-08-31T04:12:26;13.10;99.90
30678;DHT22;17437;47.188;8.896;2023-08-31T04:14:59;13.10;99.90
30678;DHT22;17437;47.188;8.896;2023-08-31T04:17:32;13.10;99.90
30678;DHT22;17437;47.188;8.896;2023-08-31T04:20:06;13.10;99.90
30678;DHT22;17437;47.188;8.896;2023-08-31T04:22:38;13.10;99.90
30678;DHT22;17437;47.188;8.896;2023-08-31T04:25:10;13.10;99.90
30678;DHT22;17437;47.188;8.896;2023-08-31T04:27:42;13.10;99.90
30678;DHT22;17437;47.188;8.896;2023-08-31T04:30:15;13.10;99.90
30678;DHT22;17437;47.188;8.896;2023-08-31T04:32:48;13.10;99.90
30678;DHT22;17437;47.188;8.896;2023-08-31T04:35:19;13.00;99.90
30678;DHT22;17437;47.188;8.896;2023-08-31T04:37:51;13.10;99.90
30678;DHT22;17437;47.188;8.896;2023-08-31T04:40:22;13.10;99.90
30678;DHT22;17437;47.188;8.896;2023-08-31T04:42:55;13.10;99.90
30678;DHT22;17437;47.188;8.896;2023-08-31T04:45:26;13.00;99.90
30678;DHT22;17437;47.188;8.896;2023-08-31T04:47:58;13.10;99.90
30678;DHT22;17437;47.188;8.896;2023-08-31T04:50:29;13.10;99.90
30678;DHT22;17437;47.188;8.896;2023-08-31T04:53:01;13.20;99.90
30678;DHT22;17437;47.188;8.896;2023-08-31T04:55:32;13.20;99.90
30678;DHT22;17437;47.188;8.896;2023-08-31T04:58:04;13.30;99.90
30678;DHT22;17437;47.188;8.896;2023-08-31T05:00:35;13.30;99.90
30678;DHT22;17437;47.188;8.896;2023-08-31T05:03:08;13.30;99.90
30678;DHT22;17437;47.188;8.896;2023-08-31T05:05:40;13.30;99.90
30678;DHT22;17437;47.188;8.896;2023-08-31T05:08:12;13.30;99.90
30678;DHT22;17437;47.188;8.896;2023-08-31T05:10:45;13.40;99.90
30678;DHT22;17437;47.188;8.896;2023-08-31T05:13:17;13.40;99.90
30678;DHT22;17437;47.188;8.896;2023-08-31T05:15:48;13.40;99.90
30678;DHT22;17437;47.188;8.896;2023-08-31T05:18:19;13.50;99.90
30678;DHT22;17437;47.188;8.896;2023-08-31T05:20:51;13.50;99.90
30678;DHT22;17437;47.188;8.896;2023-08-31T05:23:22;13.60;99.90
30678;DHT22;17437;47.188;8.896;2023-08-31T05:25:54;13.60;99.90
30678;DHT22;17437;47.188;8.896;2023-08-31T05:28:26;13.70;99.90
30678;DHT22;17437;47.188;8.896;2023-08-31T05:30:59;13.80;99.90
30678;DHT22;17437;47.188;8.896;2023-08-31T05:33:32;13.80;99.90
30678;DHT22;17437;47.188;8.896;2023-08-31T05:36:05;13.90;99.90
30678;DHT22;17437;47.188;8.896;2023-08-31T05:38:36;14.00;99.90
30678;DHT22;17437;47.188;8.896;2023-08-31T05:41:09;14.00;99.90
30678;DHT22;17437;47.188;8.896;2023-08-31T05:43:41;14.00;99.90
30678;DHT22;17437;47.188;8.896;2023-08-31T05:46:12;14.10;99.90
30678;DHT22;17437;47.188;8.896;2023-08-31T05:48:44;14.20;99.90
30678;DHT22;17437;47.188;8.896;2023-08-31T05:51:15;14.20;99.90
30678;DHT22;17437;47.188;8.896;2023-08-31T05:53:47;14.30;99.90
30678;DHT22;17437;47.188;8.896;2023-08-31T05:56:20;14.30;99.90
30678;DHT22;17437;47.188;8.896;2023-08-31T05:58:51;14.40;99.90
30678;DHT22;17437;47.188;8.896;2023-08-31T06:01:25;14.40;99.90
30678;DHT22;17437;47.188;8.896;2023-08-31T06:03:56;14.60;99.90
30678;DHT22;17437;47.188;8.896;2023-08-31T06:06:28;14.70;99.90
30678;DHT22;17437;47.188;8.896;2023-08-31T06:08:59;14.90;99.90
30678;DHT22;17437;47.188;8.896;2023-08-31T06:11:31;15.10;99.90
30678;DHT22;17437;47.188;8.896;2023-08-31T06:14:03;15.30;99.90
30678;DHT22;17437;47.188;8.896;2023-08-31T06:16:34;15.30;99.90
30678;DHT22;17437;47.188;8.896;2023-08-31T06:19:05;15.20;99.90
30678;DHT22;17437;47.188;8.896;2023-08-31T06:21:37;15.10;99.90
30678;DHT22;17437;47.188;8.896;2023-08-31T06:24:09;15.10;99.90
30678;DHT22;17437;47.188;8.896;2023-08-31T06:26:42;15.00;99.90
30678;DHT22;17437;47.188;8.896;2023-08-31T06:29:14;15.10;99.90
30678;DHT22;17437;47.188;8.896;2023-08-31T06:31:45;15.00;99.90
30678;DHT22;17437;47.188;8.896;2023-08-31T06:34:17;15.00;99.90
30678;DHT22;17437;47.188;8.896;2023-08-31T06:39:31;15.00;99.90
30678;DHT22;17437;47.188;8.896;2023-08-31T06:42:03;14.90;99.90
30678;DHT22;17437;47.188;8.896;2023-08-31T06:44:35;14.80;99.90
30678;DHT22;17437;47.188;8.896;2023-08-31T06:47:09;14.90;99.90
30678;DHT22;17437;47.188;8.896;2023-08-31T06:49:40;14.90;99.90
30678;DHT22;17437;47.188;8.896;2023-08-31T06:52:11;15.00;99.90
30678;DHT22;17437;47.188;8.896;2023-08-31T06:54:45;15.20;99.90
30678;DHT22;17437;47.188;8.896;2023-08-31T06:57:16;15.30;99.90
30678;DHT22;17437;47.188;8.896;2023-08-31T06:59:48;15.50;99.90
30678;DHT22;17437;47.188;8.896;2023-08-31T07:02:20;15.70;99.90
30678;DHT22;17437;47.188;8.896;2023-08-31T07:04:53;15.90;99.90
30678;DHT22;17437;47.188;8.896;2023-08-31T07:07:24;16.30;99.90
30678;DHT22;17437;47.188;8.896;2023-08-31T07:09:56;16.30;99.90
30678;DHT22;17437;47.188;8.896;2023-08-31T07:12:27;16.20;99.90
30678;DHT22;17437;47.188;8.896;2023-08-31T07:14:58;16.00;99.90
30678;DHT22;17437;47.188;8.896;2023-08-31T07:17:30;15.80;99.90
30678;DHT22;17437;47.188;8.896;2023-08-31T07:20:01;15.70;99.90
30678;DHT22;17437;47.188;8.896;2023-08-31T07:22:35;15.60;99.90
30678;DHT22;17437;47.188;8.896;2023-08-31T07:25:08;15.50;99.90
30678;DHT22;17437;47.188;8.896;2023-08-31T07:27:41;15.60;99.90
30678;DHT22;17437;47.188;8.896;2023-08-31T07:30:13;15.70;99.90
30678;DHT22;17437;47.188;8.896;2023-08-31T07:32:44;15.80;99.90
30678;DHT22;17437;47.188;8.896;2023-08-31T07:35:15;15.90;99.90
30678;DHT22;17437;47.188;8.896;2023-08-31T07:37:47;15.90;99.90
30678;DHT22;17437;47.188;8.896;2023-08-31T07:40:18;15.90;99.90
30678;DHT22;17437;47.188;8.896;2023-08-31T07:42:50;16.10;99.90
30678;DHT22;17437;47.188;8.896;2023-08-31T07:45:22;16.10;99.90
30678;DHT22;17437;47.188;8.896;2023-08-31T07:47:53;16.10;99.90
30678;DHT22;17437;47.188;8.896;2023-08-31T07:50:25;16.10;99.90
30678;DHT22;17437;47.188;8.896;2023-08-31T07:52:56;16.10;99.90
30678;DHT22;17437;47.188;8.896;2023-08-31T07:55:28;16.10;99.90
30678;DHT22;17437;47.188;8.896;2023-08-31T07:58:00;16.10;99.90
30678;DHT22;17437;47.188;8.896;2023-08-31T08:00:32;16.10;99.90
30678;DHT22;17437;47.188;8.896;2023-08-31T08:03:07;16.00;99.90
30678;DHT22;17437;47.188;8.896;2023-08-31T08:05:39;16.00;99.90
30678;DHT22;17437;47.188;8.896;2023-08-31T08:08:11;16.00;99.90
30678;DHT22;17437;47.188;8.896;2023-08-31T08:10:43;16.10;99.90
30678;DHT22;17437;47.188;8.896;2023-08-31T08:13:16;16.10;99.90
30678;DHT22;17437;47.188;8.896;2023-08-31T08:15:50;16.10;99.90
30678;DHT22;17437;47.188;8.896;2023-08-31T08:18:21;16.10;99.90
30678;DHT22;17437;47.188;8.896;2023-08-31T08:20:53;16.10;99.90
30678;DHT22;17437;47.188;8.896;2023-08-31T08:23:26;16.10;99.90
30678;DHT22;17437;47.188;8.896;2023-08-31T08:25:57;16.00;99.90
30678;DHT22;17437;47.188;8.896;2023-08-31T08:28:30;15.90;99.90
30678;DHT22;17437;47.188;8.896;2023-08-31T08:31:03;15.90;99.90
30678;DHT22;17437;47.188;8.896;2023-08-31T08:33:34;15.90;99.90
30678;DHT22;17437;47.188;8.896;2023-08-31T08:36:07;16.00;99.90
30678;DHT22;17437;47.188;8.896;2023-08-31T08:38:38;16.40;99.90
30678;DHT22;17437;47.188;8.896;2023-08-31T08:41:11;16.60;99.90
30678;DHT22;17437;47.188;8.896;2023-08-31T08:43:44;16.90;99.90
30678;DHT22;17437;47.188;8.896;2023-08-31T08:46:18;17.20;99.90
30678;DHT22;17437;47.188;8.896;2023-08-31T08:48:51;17.40;99.90
30678;DHT22;17437;47.188;8.896;2023-08-31T08:51:23;17.50;99.90
30678;DHT22;17437;47.188;8.896;2023-08-31T08:53:55;17.60;99.90
30678;DHT22;17437;47.188;8.896;2023-08-31T08:56:27;17.70;99.90
30678;DHT22;17437;47.188;8.896;2023-08-31T08:58:59;17.70;99.90
30678;DHT22;17437;47.188;8.896;2023-08-31T09:01:32;18.00;99.90
30678;DHT22;17437;47.188;8.896;2023-08-31T09:04:04;18.20;99.90
30678;DHT22;17437;47.188;8.896;2023-08-31T09:06:36;18.30;99.90
30678;DHT22;17437;47.188;8.896;2023-08-31T09:09:10;18.60;99.90
30678;DHT22;17437;47.188;8.896;2023-08-31T09:11:42;18.40;99.90
30678;DHT22;17437;47.188;8.896;2023-08-31T09:14:18;18.30;99.90
30678;DHT22;17437;47.188;8.896;2023-08-31T09:16:51;18.70;99.90
30678;DHT22;17437;47.188;8.896;2023-08-31T09:19:24;19.10;99.90
30678;DHT22;17437;47.188;8.896;2023-08-31T09:21:58;19.00;99.90
30678;DHT22;17437;47.188;8.896;2023-08-31T09:24:39;19.00;99.90
30678;DHT22;17437;47.188;8.896;2023-08-31T09:27:11;19.00;99.90
30678;DHT22;17437;47.188;8.896;2023-08-31T09:30:02;19.20;99.90
30678;DHT22;17437;47.188;8.896;2023-08-31T09:32:33;19.40;99.90
30678;DHT22;17437;47.188;8.896;2023-08-31T09:35:08;19.60;99.90
30678;DHT22;17437;47.188;8.896;2023-08-31T09:37:42;19.90;99.90
30678;DHT22;17437;47.188;8.896;2023-08-31T09:40:17;20.10;99.90
30678;DHT22;17437;47.188;8.896;2023-08-31T09:42:51;20.30;99.90
30678;DHT22;17437;47.188;8.896;2023-08-31T09:45:30;20.40;99.90
30678;DHT22;17437;47.188;8.896;2023-08-31T09:48:06;20.40;99.90
30678;DHT22;17437;47.188;8.896;2023-08-31T09:50:40;20.30;99.90
30678;DHT22;17437;47.188;8.896;2023-08-31T09:53:16;20.10;99.90
30678;DHT22;17437;47.188;8.896;2023-08-31T09:55:49;20.00;99.90
30678;DHT22;17437;47.188;8.896;2023-08-31T09:58:22;19.90;99.90
30678;DHT22;17437;47.188;8.896;2023-08-31T10:00:55;19.80;99.90
30678;DHT22;17437;47.188;8.896;2023-08-31T10:03:29;20.20;99.90
30678;DHT22;17437;47.188;8.896;2023-08-31T10:06:03;20.10;99.90
30678;DHT22;17437;47.188;8.896;2023-08-31T10:08:36;20.20;99.90
30678;DHT22;17437;47.188;8.896;2023-08-31T10:11:08;20.10;99.90
30678;DHT22;17437;47.188;8.896;2023-08-31T10:13:43;20.30;99.90
30678;DHT22;17437;47.188;8.896;2023-08-31T10:16:19;20.60;99.90
30678;DHT22;17437;47.188;8.896;2023-08-31T10:18:50;20.70;99.90
30678;DHT22;17437;47.188;8.896;2023-08-31T10:21:26;20.80;99.90
30678;DHT22;17437;47.188;8.896;2023-08-31T10:23:58;21.00;99.90
30678;DHT22;17437;47.188;8.896;2023-08-31T10:26:38;20.80;99.90
30678;DHT22;17437;47.188;8.896;2023-08-31T10:29:28;20.90;99.90
30678;DHT22;17437;47.188;8.896;2023-08-31T10:32:07;21.10;99.90
30678;DHT22;17437;47.188;8.896;2023-08-31T10:34:39;21.20;99.90
30678;DHT22;17437;47.188;8.896;2023-08-31T10:37:21;21.40;99.90
30678;DHT22;17437;47.188;8.896;2023-08-31T10:40:06;21.40;99.90
30678;DHT22;17437;47.188;8.896;2023-08-31T10:42:45;21.30;99.90
30678;DHT22;17437;47.188;8.896;2023-08-31T10:45:20;21.60;99.90
30678;DHT22;17437;47.188;8.896;2023-08-31T10:47:51;21.80;99.90
30678;DHT22;17437;47.188;8.896;2023-08-31T10:50:25;21.80;99.90
30678;DHT22;17437;47.188;8.896;2023-08-31T10:53:07;21.80;99.90
30678;DHT22;17437;47.188;8.896;2023-08-31T10:55:51;21.90;99.90
30678;DHT22;17437;47.188;8.896;2023-08-31T10:58:31;21.90;99.90
30678;DHT22;17437;47.188;8.896;2023-08-31T11:01:03;21.70;99.90
30678;DHT22;17437;47.188;8.896;2023-08-31T11:03:58;21.70;99.90
30678;DHT22;17437;47.188;8.896;2023-08-31T11:06:31;21.70;99.90
30678;DHT22;17437;47.188;8.896;2023-08-31T11:09:03;21.70;99.90
30678;DHT22;17437;47.188;8.896;2023-08-31T11:11:39;21.80;99.90
30678;DHT22;17437;47.188;8.896;2023-08-31T11:14:11;21.90;99.90
30678;DHT22;17437;47.188;8.896;2023-08-31T11:16:43;21.80;99.90
30678;DHT22;17437;47.188;8.896;2023-08-31T11:19:17;21.90;99.90
30678;DHT22;17437;47.188;8.896;2023-08-31T11:21:49;21.90;99.90
30678;DHT22;17437;47.188;8.896;2023-08-31T11:24:21;21.80;99.90
30678;DHT22;17437;47.188;8.896;2023-08-31T11:26:54;21.90;99.90
30678;DHT22;17437;47.188;8.896;2023-08-31T11:29:26;22.00;99.90
30678;DHT22;17437;47.188;8.896;2023-08-31T11:31:58;22.10;99.90
30678;DHT22;17437;47.188;8.896;2023-08-31T11:34:31;22.10;99.90
30678;DHT22;17437;47.188;8.896;2023-08-31T11:37:03;21.80;99.90
30678;DHT22;17437;47.188;8.896;2023-08-31T11:39:35;21.60;99.90
30678;DHT22;17437;47.188;8.896;2023-08-31T11:42:08;21.60;99.90
30678;DHT22;17437;47.188;8.896;2023-08-31T11:44:39;21.80;99.90
30678;DHT22;17437;47.188;8.896;2023-08-31T11:47:11;21.80;99.90
30678;DHT22;17437;47.188;8.896;2023-08-31T11:49:44;22.10;99.90
30678;DHT22;17437;47.188;8.896;2023-08-31T11:52:19;22.50;99.90
30678;DHT22;17437;47.188;8.896;2023-08-31T11:54:54;22.60;99.90
30678;DHT22;17437;47.188;8.896;2023-08-31T11:57:27;22.70;99.90
30678;DHT22;17437;47.188;8.896;2023-08-31T11:59:59;22.40;99.90
30678;DHT22;17437;47.188;8.896;2023-08-31T12:02:35;22.00;99.90
30678;DHT22;17437;47.188;8.896;2023-08-31T12:05:08;21.80;99.90
30678;DHT22;17437;47.188;8.896;2023-08-31T12:07:41;21.40;99.90
30678;DHT22;17437;47.188;8.896;2023-08-31T12:10:14;21.30;99.90
30678;DHT22;17437;47.188;8.896;2023-08-31T12:12:46;21.60;99.90
30678;DHT22;17437;47.188;8.896;2023-08-31T12:15:18;21.90;99.90
30678;DHT22;17437;47.188;8.896;2023-08-31T12:17:51;22.00;99.90
30678;DHT22;17437;47.188;8.896;2023-08-31T12:20:26;22.20;99.90
30678;DHT22;17437;47.188;8.896;2023-08-31T12:22:59;22.40;99.90
30678;DHT22;17437;47.188;8.896;2023-08-31T12:25:31;22.50;99.90
30678;DHT22;17437;47.188;8.896;2023-08-31T12:28:03;22.70;99.90
30678;DHT22;17437;47.188;8.896;2023-08-31T12:30:34;22.70;99.90
30678;DHT22;17437;47.188;8.896;2023-08-31T12:33:06;22.80;99.90
30678;DHT22;17437;47.188;8.896;2023-08-31T12:35:39;22.90;99.90
30678;DHT22;17437;47.188;8.896;2023-08-31T12:38:13;22.70;99.90
30678;DHT22;17437;47.188;8.896;2023-08-31T12:40:46;22.50;99.90
30678;DHT22;17437;47.188;8.896;2023-08-31T12:43:17;22.10;99.90
30678;DHT22;17437;47.188;8.896;2023-08-31T12:45:51;22.00;99.90
30678;DHT22;17437;47.188;8.896;2023-08-31T12:48:23;22.00;99.90
30678;DHT22;17437;47.188;8.896;2023-08-31T12:50:54;21.80;99.90
30678;DHT22;17437;47.188;8.896;2023-08-31T12:53:26;21.70;99.90
30678;DHT22;17437;47.188;8.896;2023-08-31T12:55:59;21.60;99.90
30678;DHT22;17437;47.188;8.896;2023-08-31T12:58:30;21.50;99.90
30678;DHT22;17437;47.188;8.896;2023-08-31T13:01:03;21.50;99.90
30678;DHT22;17437;47.188;8.896;2023-08-31T13:03:35;21.60;99.90
30678;DHT22;17437;47.188;8.896;2023-08-31T13:06:07;21.70;99.90
30678;DHT22;17437;47.188;8.896;2023-08-31T13:08:38;21.70;99.90
30678;DHT22;17437;47.188;8.896;2023-08-31T13:11:10;21.80;99.90
30678;DHT22;17437;47.188;8.896;2023-08-31T13:13:42;21.70;99.90
30678;DHT22;17437;47.188;8.896;2023-08-31T13:16:17;21.60;99.90
30678;DHT22;17437;47.188;8.896;2023-08-31T13:18:48;21.80;99.90
30678;DHT22;17437;47.188;8.896;2023-08-31T13:21:20;21.90;99.90
30678;DHT22;17437;47.188;8.896;2023-08-31T13:23:52;22.10;99.90
30678;DHT22;17437;47.188;8.896;2023-08-31T13:26:23;22.10;99.90
30678;DHT22;17437;47.188;8.896;2023-08-31T13:28:55;22.10;99.90
30678;DHT22;17437;47.188;8.896;2023-08-31T13:31:26;22.10;99.90
30678;DHT22;17437;47.188;8.896;2023-08-31T13:33:59;21.80;99.90
30678;DHT22;17437;47.188;8.896;2023-08-31T13:36:31;21.70;99.90
30678;DHT22;17437;47.188;8.896;2023-08-31T13:39:03;21.70;99.90
30678;DHT22;17437;47.188;8.896;2023-08-31T13:41:35;21.60;99.90
30678;DHT22;17437;47.188;8.896;2023-08-31T13:44:06;21.60;99.90
30678;DHT22;17437;47.188;8.896;2023-08-31T13:46:38;21.60;99.90
30678;DHT22;17437;47.188;8.896;2023-08-31T13:49:09;21.60;99.90
30678;DHT22;17437;47.188;8.896;2023-08-31T13:51:41;21.60;99.90
30678;DHT22;17437;47.188;8.896;2023-08-31T13:54:13;21.50;99.90
30678;DHT22;17437;47.188;8.896;2023-08-31T13:56:44;21.50;99.90
30678;DHT22;17437;47.188;8.896;2023-08-31T13:59:16;21.40;99.90
30678;DHT22;17437;47.188;8.896;2023-08-31T14:01:48;21.40;99.90
30678;DHT22;17437;47.188;8.896;2023-08-31T14:04:20;21.30;99.90
30678;DHT22;17437;47.188;8.896;2023-08-31T14:06:52;21.20;99.90
30678;DHT22;17437;47.188;8.896;2023-08-31T14:09:24;21.10;99.90
30678;DHT22;17437;47.188;8.896;2023-08-31T14:11:56;21.00;99.90
30678;DHT22;17437;47.188;8.896;2023-08-31T14:14:28;21.00;99.90
30678;DHT22;17437;47.188;8.896;2023-08-31T14:16:59;20.80;99.90
30678;DHT22;17437;47.188;8.896;2023-08-31T14:19:31;20.70;99.90
30678;DHT22;17437;47.188;8.896;2023-08-31T14:22:03;20.70;99.90
30678;DHT22;17437;47.188;8.896;2023-08-31T14:24:35;20.70;99.90
30678;DHT22;17437;47.188;8.896;2023-08-31T14:27:07;20.80;99.90
30678;DHT22;17437;47.188;8.896;2023-08-31T14:29:38;20.70;99.90
30678;DHT22;17437;47.188;8.896;2023-08-31T14:32:10;20.70;99.90
30678;DHT22;17437;47.188;8.896;2023-08-31T14:34:43;20.70;99.90
30678;DHT22;17437;47.188;8.896;2023-08-31T14:37:15;20.70;99.90
30678;DHT22;17437;47.188;8.896;2023-08-31T14:39:47;20.70;99.90
30678;DHT22;17437;47.188;8.896;2023-08-31T14:42:18;20.60;99.90
30678;DHT22;17437;47.188;8.896;2023-08-31T14:44:51;20.70;99.90
30678;DHT22;17437;47.188;8.896;2023-08-31T14:47:23;20.70;99.90
30678;DHT22;17437;47.188;8.896;2023-08-31T14:49:55;20.50;99.90
30678;DHT22;17437;47.188;8.896;2023-08-31T14:52:27;20.30;99.90
30678;DHT22;17437;47.188;8.896;2023-08-31T14:54:59;20.10;99.90
30678;DHT22;17437;47.188;8.896;2023-08-31T14:57:31;20.10;99.90
30678;DHT22;17437;47.188;8.896;2023-08-31T15:00:04;20.00;99.90
30678;DHT22;17437;47.188;8.896;2023-08-31T15:02:37;20.10;99.90
30678;DHT22;17437;47.188;8.896;2023-08-31T15:05:09;20.10;99.90
30678;DHT22;17437;47.188;8.896;2023-08-31T15:07:42;20.10;99.90
30678;DHT22;17437;47.188;8.896;2023-08-31T15:10:14;20.20;99.90
30678;DHT22;17437;47.188;8.896;2023-08-31T15:12:49;20.30;99.90
30678;DHT22;17437;47.188;8.896;2023-08-31T15:15:23;20.40;99.90
30678;DHT22;17437;47.188;8.896;2023-08-31T15:17:55;20.40;99.90
30678;DHT22;17437;47.188;8.896;2023-08-31T15:20:27;20.40;99.90
30678;DHT22;17437;47.188;8.896;2023-08-31T15:22:59;20.40;99.90
30678;DHT22;17437;47.188;8.896;2023-08-31T15:25:30;20.30;99.90
30678;DHT22;17437;47.188;8.896;2023-08-31T15:28:02;20.40;99.90
30678;DHT22;17437;47.188;8.896;2023-08-31T15:30:36;20.40;99.90
30678;DHT22;17437;47.188;8.896;2023-08-31T15:33:08;20.60;99.90
30678;DHT22;17437;47.188;8.896;2023-08-31T15:35:40;20.80;99.90
30678;DHT22;17437;47.188;8.896;2023-08-31T15:38:11;20.80;99.90
30678;DHT22;17437;47.188;8.896;2023-08-31T15:40:47;20.80;99.90
30678;DHT22;17437;47.188;8.896;2023-08-31T15:43:20;20.70;99.90
30678;DHT22;17437;47.188;8.896;2023-08-31T15:45:52;20.60;99.90
30678;DHT22;17437;47.188;8.896;2023-08-31T15:48:23;20.40;99.90
30678;DHT22;17437;47.188;8.896;2023-08-31T15:50:56;20.10;99.90
30678;DHT22;17437;47.188;8.896;2023-08-31T15:53:28;19.90;99.90
30678;DHT22;17437;47.188;8.896;2023-08-31T15:56:01;19.80;99.90
30678;DHT22;17437;47.188;8.896;2023-08-31T15:58:34;19.70;99.90
30678;DHT22;17437;47.188;8.896;2023-08-31T16:01:10;19.60;99.90
30678;DHT22;17437;47.188;8.896;2023-08-31T16:03:42;19.50;99.90
30678;DHT22;17437;47.188;8.896;2023-08-31T16:06:19;19.40;99.90